Time;durP1;ratioP1;P1;durP2;ratioP2;P2;SDS_P1;SDS_P2;PMS_P1;PMS_P2;Temp;Humidity;BMP_temperature;BMP_pressure;BME280_temperature;BME280_humidity;BME280_pressure;Samples;Min_cycle;Max_cycle;Signal;HPM_P1;HPM_P2
2021/05/22 00:00:19;;;;;;;;;;;;;;;19.93;44.30;99354.47;2202757;39;115819;-54
2021/05/22 00:01:50;;;;;;;;;;;;;;;19.93;44.71;99362.06;2213544;39;115827;-54
2021/05/22 00:03:22;;;;;;;;;;;;;;;19.91;44.66;99364.38;2209925;39;115175;-54
2021/05/22 00:04:54;;;;;;;;;;;;;;;19.92;44.61;99366.84;2215413;39;115498;-54
2021/05/22 00:06:25;;;;;;;;;;;;;;;19.92;44.63;99364.03;2217301;39;114293;-54
2021/05/22 00:07:57;;;;;;;;;;;;;;;19.91;44.70;99359.59;2216540;39;115161;-54
2021/05/22 00:09:29;;;;;;;;;;;;;;;19.91;45.05;99358.78;2220245;39;115760;-54
2021/05/22 00:11:00;;;;;;;;;;;;;;;19.89;45.05;99370.34;2218438;39;113996;-54
2021/05/22 00:12:32;;;;;;;;;;;;;;;19.90;44.78;99365.53;2210068;39;114056;-54
2021/05/22 00:14:05;;;;;;;;;;;;;;;19.87;44.99;99364.25;2214514;39;113958;-54
2021/05/22 00:15:36;;;;;;;;;;;;;;;19.88;44.95;99377.09;2217426;39;113778;-54
2021/05/22 00:17:08;;;;;;;;;;;;;;;19.85;45.00;99372.16;2217732;39;113719;-55
2021/05/22 00:18:40;;;;;;;;;;;;;;;19.84;45.21;99367.75;2204752;39;113737;-54
2021/05/22 00:20:13;;;;;;;;;;;;;;;19.84;45.06;99370.53;2213580;39;113645;-54
2021/05/22 00:21:44;;;;;;;;;;;;;;;19.86;45.02;99373.81;2210039;39;114240;-53
2021/05/22 00:23:16;;;;;;;;;;;;;;;19.84;45.21;99367.75;2215669;39;113777;-54
2021/05/22 00:24:48;;;;;;;;;;;;;;;19.84;45.09;99386.53;2217360;39;113675;-54
2021/05/22 00:26:19;;;;;;;;;;;;;;;19.82;45.60;99372.03;2209592;39;113870;-54
2021/05/22 00:27:51;;;;;;;;;;;;;;;19.84;45.59;99369.72;2211821;39;113731;-54
2021/05/22 00:29:23;;;;;;;;;;;;;;;19.82;45.52;99372.84;2204479;39;113806;-53
2021/05/22 00:30:54;;;;;;;;;;;;;;;19.80;45.62;99374.38;2209229;39;114102;-54
2021/05/22 00:32:26;;;;;;;;;;;;;;;19.81;45.15;99373.19;2215391;39;113777;-54
2021/05/22 00:33:58;;;;;;;;;;;;;;;19.81;45.47;99378.78;2210881;39;114792;-54
2021/05/22 00:35:30;;;;;;;;;;;;;;;19.79;45.75;99378.34;2212683;39;113889;-54
2021/05/22 00:37:01;;;;;;;;;;;;;;;19.78;45.71;99373.88;2204544;39;114896;-54
2021/05/22 00:38:33;;;;;;;;;;;;;;;19.78;45.67;99382.28;2210204;39;115455;-54
2021/05/22 00:40:05;;;;;;;;;;;;;;;19.76;45.86;99368.63;2210978;39;115010;-54
2021/05/22 00:41:37;;;;;;;;;;;;;;;19.78;45.82;99376.69;2217670;39;113961;-54
2021/05/22 00:43:08;;;;;;;;;;;;;;;19.74;45.85;99370.94;2205642;39;114950;-54
2021/05/22 00:44:50;;;;;;;;;;;;;;;19.77;46.00;99377.84;2210240;39;114783;-53
2021/05/22 00:46:21;;;;;;;;;;;;;;;19.75;46.02;99375.41;2214891;39;115551;-54
2021/05/22 00:47:55;;;;;;;;;;;;;;;19.75;45.79;99381.00;2213002;39;115091;-54
2021/05/22 00:49:27;;;;;;;;;;;;;;;19.74;46.01;99379.34;2207672;39;113908;-54
2021/05/22 00:50:59;;;;;;;;;;;;;;;19.74;46.13;99386.94;2205350;39;114938;-54
2021/05/22 00:52:31;;;;;;;;;;;;;;;19.73;46.32;99385.28;2215440;39;115126;-54
2021/05/22 00:54:03;;;;;;;;;;;;;;;19.73;46.04;99377.72;2210772;39;115429;-54
2021/05/22 00:55:35;;;;;;;;;;;;;;;19.73;46.55;99374.09;2215285;39;115418;-54
2021/05/22 00:57:06;;;;;;;;;;;;;;;19.72;46.70;99378.03;2217500;39;114782;-54
2021/05/22 00:58:38;;;;;;;;;;;;;;;19.72;46.39;99381.66;2210852;39;115965;-54
2021/05/22 01:00:12;;;;;;;;;;;;;;;19.71;46.39;99380.06;2204707;39;115439;-54
2021/05/22 01:01:44;;;;;;;;;;;;;;;19.70;46.61;99389.63;2208599;39;114996;-54
2021/05/22 01:03:18;;;;;;;;;;;;;;;19.70;46.64;99375.59;2206132;39;114768;-54
2021/05/22 01:04:51;;;;;;;;;;;;;;;19.70;46.49;99383.19;2208525;39;115057;-53
2021/05/22 01:06:22;;;;;;;;;;;;;;;19.71;46.64;99384.84;2208407;39;114879;-53
2021/05/22 01:07:55;;;;;;;;;;;;;;;19.68;46.58;99380.72;2214930;39;115606;-54
2021/05/22 01:09:27;;;;;;;;;;;;;;;19.69;46.61;99385.16;2208708;39;114653;-54
2021/05/22 01:11:01;;;;;;;;;;;;;;;19.69;46.65;99379.56;2215606;39;117920;-54
2021/05/22 01:12:34;;;;;;;;;;;;;;;19.68;46.60;99393.91;2213835;39;114764;-54
2021/05/22 01:14:15;;;;;;;;;;;;;;;19.67;46.85;99390.28;2210155;39;115433;-53
2021/05/22 01:15:50;;;;;;;;;;;;;;;19.66;46.97;99377.44;2208870;39;115231;-54
2021/05/22 01:17:22;;;;;;;;;;;;;;;19.66;47.01;99387.84;2215455;39;113911;-54
2021/05/22 01:18:55;;;;;;;;;;;;;;;19.65;47.10;99392.63;2206761;39;113786;-54
2021/05/22 01:20:36;;;;;;;;;;;;;;;19.65;46.86;99391.78;2211630;39;114701;-54
2021/05/22 01:22:10;;;;;;;;;;;;;;;19.66;46.79;99388.66;2210364;39;114122;-54
2021/05/22 01:23:46;;;;;;;;;;;;;;;19.65;47.15;99384.22;2204453;39;114074;-54
2021/05/22 01:25:19;;;;;;;;;;;;;;;19.67;46.77;99392.28;2206656;39;113764;-54
2021/05/22 01:26:51;;;;;;;;;;;;;;;19.64;47.30;99390.97;2208077;39;113929;-54
2021/05/22 01:28:23;;;;;;;;;;;;;;;19.65;47.15;99389.81;2209595;39;113981;-54
2021/05/22 01:29:55;;;;;;;;;;;;;;;19.66;47.31;99391.47;2210110;39;113897;-54
2021/05/22 01:31:27;;;;;;;;;;;;;;;19.65;47.30;99395.41;2211065;39;113777;-55
2021/05/22 01:32:59;;;;;;;;;;;;;;;19.65;47.42;99387.00;2209557;39;114148;-54
2021/05/22 01:34:32;;;;;;;;;;;;;;;19.64;47.47;99384.53;2209167;39;114186;-54
2021/05/22 01:36:04;;;;;;;;;;;;;;;19.63;47.35;99388.50;2209017;39;114473;-54
2021/05/22 01:37:36;;;;;;;;;;;;;;;19.62;47.50;99387.69;2212601;39;114084;-54
2021/05/22 01:39:08;;;;;;;;;;;;;;;19.63;47.39;99391.28;2207417;39;113915;-54
2021/05/22 01:40:39;;;;;;;;;;;;;;;19.61;47.73;99391.66;2209474;39;115192;-54
2021/05/22 01:42:11;;;;;;;;;;;;;;;19.62;47.45;99400.88;2207855;39;115709;-55
2021/05/22 01:43:45;;;;;;;;;;;;;;;19.61;47.81;99397.25;2210403;39;114827;-54
2021/05/22 01:45:20;;;;;;;;;;;;;;;19.61;47.50;99399.22;2211366;39;115184;-54
2021/05/22 01:46:53;;;;;;;;;;;;;;;19.60;47.56;99406.81;2210586;39;114227;-54
2021/05/22 01:48:25;;;;;;;;;;;;;;;19.60;47.81;99409.63;2210327;39;114912;-54
2021/05/22 01:49:57;;;;;;;;;;;;;;;19.62;48.00;99400.88;2206281;39;115132;-54
2021/05/22 01:51:29;;;;;;;;;;;;;;;19.61;47.88;99404.84;2210315;39;115164;-54
2021/05/22 01:53:02;;;;;;;;;;;;;;;19.61;48.11;99411.25;2206656;39;115003;-54
2021/05/22 01:54:36;;;;;;;;;;;;;;;19.61;48.31;99404.84;2207624;39;114398;-54
2021/05/22 01:56:08;;;;;;;;;;;;;;;19.59;47.96;99407.97;2214200;39;114779;-54
2021/05/22 01:57:40;;;;;;;;;;;;;;;19.60;48.00;99409.63;2209395;39;115372;-53
2021/05/22 01:59:12;;;;;;;;;;;;;;;19.61;47.96;99399.22;2211956;39;115416;-54
2021/05/22 02:00:45;;;;;;;;;;;;;;;19.59;48.05;99402.38;2206535;39;115292;-54
2021/05/22 02:02:21;;;;;;;;;;;;;;;19.60;48.20;99406.00;2202874;39;115772;-55
2021/05/22 02:03:53;;;;;;;;;;;;;;;19.58;48.13;99409.13;2206835;39;116209;-53
2021/05/22 02:05:26;;;;;;;;;;;;;;;19.57;48.36;99412.28;2211300;39;115808;-53
2021/05/22 02:06:59;;;;;;;;;;;;;;;19.59;48.00;99415.56;2210260;39;115401;-54
2021/05/22 02:08:32;;;;;;;;;;;;;;;19.58;48.18;99423.13;2210967;39;115733;-54
2021/05/22 02:10:05;;;;;;;;;;;;;;;19.57;47.95;99420.69;2206031;39;116272;-54
2021/05/22 02:11:38;;;;;;;;;;;;;;;19.56;48.26;99411.47;2208454;39;115970;-54
2021/05/22 02:13:12;;;;;;;;;;;;;;;19.57;47.80;99418.72;2209898;39;115815;-54
2021/05/22 02:14:46;;;;;;;;;;;;;;;19.56;47.98;99419.03;2207060;39;114550;-54
2021/05/22 02:16:21;;;;;;;;;;;;;;;19.53;48.31;99421.34;2207651;39;114545;-53
2021/05/22 02:17:53;;;;;;;;;;;;;;;19.52;48.55;99424.50;2204161;39;115560;-54
2021/05/22 02:19:25;;;;;;;;;;;;;;;19.52;48.25;99424.50;2201855;39;115493;-54
2021/05/22 02:20:58;;;;;;;;;;;;;;;19.52;48.38;99435.72;2213167;39;116003;-54
2021/05/22 02:22:31;;;;;;;;;;;;;;;19.53;48.47;99426.94;2209839;39;114050;-53
2021/05/22 02:24:03;;;;;;;;;;;;;;;19.52;48.19;99430.09;2215251;39;113924;-53
2021/05/22 02:25:34;;;;;;;;;;;;;;;19.52;48.27;99430.94;2210425;39;114200;-54
2021/05/22 02:27:07;;;;;;;;;;;;;;;19.49;48.21;99430.75;2210152;39;113953;-54
2021/05/22 02:28:40;;;;;;;;;;;;;;;19.50;48.39;99433.25;2205802;39;114014;-54
2021/05/22 02:30:13;;;;;;;;;;;;;;;19.49;48.36;99431.59;2208258;39;113893;-53
2021/05/22 02:31:46;;;;;;;;;;;;;;;19.50;48.15;99440.81;2209980;39;113913;-55
2021/05/22 02:33:18;;;;;;;;;;;;;;;19.50;48.20;99435.22;2208119;39;113992;-53
2021/05/22 02:34:52;;;;;;;;;;;;;;;19.49;48.17;99436.38;2205588;39;114148;-53
2021/05/22 02:36:24;;;;;;;;;;;;;;;19.48;48.32;99434.75;2210992;39;113847;-54
2021/05/22 02:37:56;;;;;;;;;;;;;;;19.48;48.38;99445.94;2203979;39;113772;-54
2021/05/22 02:39:28;;;;;;;;;;;;;;;19.46;48.31;99445.47;2208530;39;113867;-54
2021/05/22 02:41:01;;;;;;;;;;;;;;;19.46;48.21;99449.09;2210006;39;114097;-53
2021/05/22 02:42:33;;;;;;;;;;;;;;;19.44;48.35;99442.19;2208511;39;114093;-54
2021/05/22 02:44:05;;;;;;;;;;;;;;;19.43;48.06;99444.16;2210700;39;113887;-54
2021/05/22 02:45:38;;;;;;;;;;;;;;;19.43;48.60;99449.78;2208153;39;115119;-54
2021/05/22 02:47:10;;;;;;;;;;;;;;;19.42;48.16;99450.88;2206755;39;114110;-54
2021/05/22 02:48:42;;;;;;;;;;;;;;;19.43;48.07;99446.09;2210501;39;114889;-54
2021/05/22 02:50:14;;;;;;;;;;;;;;;19.42;48.10;99447.25;2210182;39;116651;-54
2021/05/22 02:51:48;;;;;;;;;;;;;;;19.42;48.23;99444.47;2208371;39;113997;-54
2021/05/22 02:53:22;;;;;;;;;;;;;;;19.42;48.23;99450.88;2209191;39;115133;-54
2021/05/22 02:54:54;;;;;;;;;;;;;;;19.42;48.38;99453.69;2207816;39;114898;-53
2021/05/22 02:56:26;;;;;;;;;;;;;;;19.42;48.10;99450.06;2205995;39;114746;-53
2021/05/22 02:57:59;;;;;;;;;;;;;;;19.42;48.11;99450.06;2206154;39;115314;-54
2021/05/22 02:59:31;;;;;;;;;;;;;;;19.41;48.06;99454.00;2207418;39;115033;-54
2021/05/22 03:01:03;;;;;;;;;;;;;;;19.38;48.32;99452.72;2210597;39;115265;-54
2021/05/22 03:02:36;;;;;;;;;;;;;;;19.38;48.53;99454.69;2206243;39;114866;-54
2021/05/22 03:04:07;;;;;;;;;;;;;;;19.37;48.78;99450.25;2207355;39;114766;-54
2021/05/22 03:05:41;;;;;;;;;;;;;;;19.37;48.63;99456.69;2210392;39;114146;-54
2021/05/22 03:07:13;;;;;;;;;;;;;;;19.38;48.56;99463.94;2207950;39;114521;-58
2021/05/22 03:08:47;;;;;;;;;;;;;;;19.39;48.40;99453.56;2214670;39;115318;-54
2021/05/22 03:10:19;;;;;;;;;;;;;;;19.38;49.02;99454.69;2209564;39;115767;-54
2021/05/22 03:11:50;;;;;;;;;;;;;;;19.39;48.81;99456.34;2210571;39;115592;-54
2021/05/22 03:13:22;;;;;;;;;;;;;;;19.39;49.08;99459.97;2209894;39;114448;-54
2021/05/22 03:14:54;;;;;;;;;;;;;;;19.40;49.04;99458.78;2208411;39;116068;-53
2021/05/22 03:16:26;;;;;;;;;;;;;;;19.38;48.91;99469.53;2206219;39;115711;-54
2021/05/22 03:17:58;;;;;;;;;;;;;;;19.38;48.87;99468.69;2206669;39;115816;-54
2021/05/22 03:19:29;;;;;;;;;;;;;;;19.38;48.83;99463.94;2207435;39;116361;-54
2021/05/22 03:21:01;;;;;;;;;;;;;;;19.37;48.79;99467.88;2210946;39;116079;-54
2021/05/22 03:22:33;;;;;;;;;;;;;;;19.38;48.87;99466.72;2206993;39;115585;-55
2021/05/22 03:24:05;;;;;;;;;;;;;;;19.36;49.23;99463.44;2204598;39;115571;-54
2021/05/22 03:25:37;;;;;;;;;;;;;;;19.35;48.97;99481.38;2205332;39;116399;-54
2021/05/22 03:27:08;;;;;;;;;;;;;;;19.36;48.98;99476.59;2212103;39;115330;-54
2021/05/22 03:28:40;;;;;;;;;;;;;;;19.35;48.94;99477.78;2209290;39;113893;-55
2021/05/22 03:30:13;;;;;;;;;;;;;;;19.35;48.83;99486.19;2205609;39;113857;-54
2021/05/22 03:31:44;;;;;;;;;;;;;;;19.35;48.99;99487.00;2206205;39;114025;-54
2021/05/22 03:33:16;;;;;;;;;;;;;;;19.35;48.88;99484.19;2206545;39;113770;-54
2021/05/22 03:34:48;;;;;;;;;;;;;;;19.34;48.94;99490.97;2211239;39;113800;-54
2021/05/22 03:36:20;;;;;;;;;;;;;;;19.34;49.08;99495.75;2205360;39;114298;-55
2021/05/22 03:37:52;;;;;;;;;;;;;;;19.34;48.92;99499.38;2209736;39;113833;-54
2021/05/22 03:39:23;;;;;;;;;;;;;;;19.34;49.19;99502.16;2210435;39;113767;-54
2021/05/22 03:40:55;;;;;;;;;;;;;;;19.34;49.19;99502.16;2208488;39;113994;-54
2021/05/22 03:42:27;;;;;;;;;;;;;;;19.34;49.03;99502.16;2206984;39;113850;-53
2021/05/22 03:43:59;;;;;;;;;;;;;;;19.34;49.20;99509.75;2206541;39;113657;-54
2021/05/22 03:45:31;;;;;;;;;;;;;;;19.35;48.99;99514.19;2207488;39;113905;-54
2021/05/22 03:47:03;;;;;;;;;;;;;;;19.34;48.92;99512.53;2206168;39;114037;-54
2021/05/22 03:48:35;;;;;;;;;;;;;;;19.34;49.28;99515.34;2207729;39;113842;-54
2021/05/22 03:50:07;;;;;;;;;;;;;;;19.33;49.06;99511.72;2208682;39;114596;-54
2021/05/22 03:51:39;;;;;;;;;;;;;;;19.33;49.10;99516.50;2209502;39;115092;-54
2021/05/22 03:53:11;;;;;;;;;;;;;;;19.32;49.29;99526.06;2202233;39;115006;-54
2021/05/22 03:54:44;;;;;;;;;;;;;;;19.33;48.83;99527.69;2204242;39;115369;-54
2021/05/22 03:56:16;;;;;;;;;;;;;;;19.33;49.08;99527.69;2207119;39;114837;-53
2021/05/22 03:57:47;;;;;;;;;;;;;;;19.31;49.03;99524.41;2210109;39;114859;-54
2021/05/22 03:59:19;;;;;;;;;;;;;;;19.29;49.24;99533.16;2207497;39;115536;-54
2021/05/22 04:00:51;;;;;;;;;;;;;;;19.32;49.24;99531.66;2211166;39;114279;-53
2021/05/22 04:02:22;;;;;;;;;;;;;;;19.30;49.47;99533.97;2209177;39;115021;-54
2021/05/22 04:03:54;;;;;;;;;;;;;;;19.29;49.29;99535.13;2210932;39;115146;-54
2021/05/22 04:05:26;;;;;;;;;;;;;;;19.30;49.59;99537.59;2210495;39;114485;-54
2021/05/22 04:06:57;;;;;;;;;;;;;;;19.32;49.48;99537.25;2208160;39;115042;-54
2021/05/22 04:08:29;;;;;;;;;;;;;;;19.30;49.44;99545.19;2210804;39;114954;-55
2021/05/22 04:10:01;;;;;;;;;;;;;;;19.29;49.72;99549.13;2211958;39;114943;-54
2021/05/22 04:11:32;;;;;;;;;;;;;;;19.30;49.72;99545.19;2209621;39;119267;-54
2021/05/22 04:13:04;;;;;;;;;;;;;;;19.31;49.81;99546.81;2210369;39;115582;-54
2021/05/22 04:14:36;;;;;;;;;;;;;;;19.29;49.49;99549.97;2209617;39;114723;-54
2021/05/22 04:16:07;;;;;;;;;;;;;;;19.29;49.65;99554.72;2207690;39;115072;-54
2021/05/22 04:17:39;;;;;;;;;;;;;;;19.29;49.39;99551.94;2205292;39;115709;-54
2021/05/22 04:19:11;;;;;;;;;;;;;;;19.29;49.75;99563.13;2209571;39;116200;-54
2021/05/22 04:20:42;;;;;;;;;;;;;;;19.28;49.74;99559.50;2210783;39;115728;-54
2021/05/22 04:22:14;;;;;;;;;;;;;;;19.28;49.71;99569.88;2205772;39;115536;-53
2021/05/22 04:23:46;;;;;;;;;;;;;;;19.28;49.69;99567.09;2207648;39;115542;-54
2021/05/22 04:25:17;;;;;;;;;;;;;;;19.27;49.84;99585.03;2206402;39;115044;-54
2021/05/22 04:26:49;;;;;;;;;;;;;;;19.30;49.78;99573.19;2207227;39;115906;-54
2021/05/22 04:28:20;;;;;;;;;;;;;;;19.30;49.64;99581.59;2207785;39;115666;-54
2021/05/22 04:29:52;;;;;;;;;;;;;;;19.29;49.71;99591.13;2209805;39;115959;-54
2021/05/22 04:31:24;;;;;;;;;;;;;;;19.28;49.57;99593.09;2210361;39;114248;-54
2021/05/22 04:32:56;;;;;;;;;;;;;;;19.28;49.67;99586.69;2209595;39;115774;-54
2021/05/22 04:34:28;;;;;;;;;;;;;;;19.28;49.29;99595.91;2206477;39;114330;-54
2021/05/22 04:35:59;;;;;;;;;;;;;;;19.28;49.27;99597.88;2208012;39;113835;-54
2021/05/22 04:37:31;;;;;;;;;;;;;;;19.26;49.83;99605.81;2209778;39;114007;-54
2021/05/22 04:39:03;;;;;;;;;;;;;;;19.27;49.61;99604.63;2209808;39;113621;-54
2021/05/22 04:40:35;;;;;;;;;;;;;;;19.27;49.48;99610.25;2209383;39;113757;-54
2021/05/22 04:42:07;;;;;;;;;;;;;;;19.25;49.54;99616.19;2213410;39;114289;-54
2021/05/22 04:43:38;;;;;;;;;;;;;;;19.27;49.23;99613.03;2211933;39;114157;-54
2021/05/22 04:45:10;;;;;;;;;;;;;;;19.25;49.28;99627.38;2211189;39;113733;-54
2021/05/22 04:46:42;;;;;;;;;;;;;;;19.24;49.72;99619.31;2210912;39;113721;-54
2021/05/22 04:48:14;;;;;;;;;;;;;;;19.24;49.45;99634.13;2211330;39;113931;-54
2021/05/22 04:49:45;;;;;;;;;;;;;;;19.24;49.82;99631.34;2211766;39;113879;-54
2021/05/22 04:51:17;;;;;;;;;;;;;;;19.23;49.68;99635.28;2211485;39;114301;-54
2021/05/22 04:52:49;;;;;;;;;;;;;;;19.25;49.58;99627.38;2211375;39;113895;-53
2021/05/22 04:54:20;;;;;;;;;;;;;;;19.24;49.80;99638.91;2212223;39;114091;-54
2021/05/22 04:55:52;;;;;;;;;;;;;;;19.22;49.78;99633.63;2210916;39;115365;-54
2021/05/22 04:57:23;;;;;;;;;;;;;;;19.23;49.94;99645.66;2210067;39;115398;-54
2021/05/22 04:58:55;;;;;;;;;;;;;;;19.23;49.90;99643.69;2209689;39;115223;-53
2021/05/22 05:00:27;;;;;;;;;;;;;;;19.23;49.73;99651.25;2210223;39;114848;-54
2021/05/22 05:01:58;;;;;;;;;;;;;;;19.22;49.64;99649.59;2210012;39;114957;-54
2021/05/22 05:03:32;;;;;;;;;;;;;;;19.22;50.08;99656.03;2205248;39;113857;-54
2021/05/22 05:05:04;;;;;;;;;;;;;;;19.20;49.80;99655.56;2211317;39;115528;-54
2021/05/22 05:06:36;;;;;;;;;;;;;;;19.21;49.83;99662.81;2207939;39;114340;-54
2021/05/22 05:08:08;;;;;;;;;;;;;;;19.21;50.02;99667.59;2209765;39;114901;-55
2021/05/22 05:09:40;;;;;;;;;;;;;;;19.22;49.91;99664.44;2210484;39;114372;-54
2021/05/22 05:11:12;;;;;;;;;;;;;;;19.22;49.87;99672.84;2210294;39;115116;-54
2021/05/22 05:12:43;;;;;;;;;;;;;;;19.20;50.02;99671.53;2208521;39;114830;-54
2021/05/22 05:14:15;;;;;;;;;;;;;;;19.22;50.18;99672.84;2210795;39;114030;-54
2021/05/22 05:15:47;;;;;;;;;;;;;;;19.22;50.29;99681.22;2213009;39;115650;-54
2021/05/22 05:17:19;;;;;;;;;;;;;;;19.21;50.57;99688.00;2210872;39;115616;-53
2021/05/22 05:18:51;;;;;;;;;;;;;;;19.22;50.17;99691.59;2211065;39;115905;-54
2021/05/22 05:20:23;;;;;;;;;;;;;;;19.21;49.90;99687.19;2210209;39;114720;-55
2021/05/22 05:21:55;;;;;;;;;;;;;;;19.21;50.10;99699.22;2210768;39;115925;-53
2021/05/22 05:23:26;;;;;;;;;;;;;;;19.21;50.08;99701.19;2211066;39;116058;-53
2021/05/22 05:24:58;;;;;;;;;;;;;;;19.18;50.22;99704.63;2210468;39;115373;-54
2021/05/22 05:26:29;;;;;;;;;;;;;;;19.20;50.35;99707.94;2208155;39;116252;-54
2021/05/22 05:28:01;;;;;;;;;;;;;;;19.18;49.99;99699.03;2211435;39;115599;-54
2021/05/22 05:29:34;;;;;;;;;;;;;;;19.19;50.30;99701.50;2211225;39;115706;-54
2021/05/22 05:31:06;;;;;;;;;;;;;;;19.19;50.43;99701.50;2210195;39;115892;-54
2021/05/22 05:32:37;;;;;;;;;;;;;;;19.17;50.30;99709.41;2210715;39;115837;-54
2021/05/22 05:34:09;;;;;;;;;;;;;;;19.18;50.30;99704.63;2211704;39;115657;-53
2021/05/22 05:35:41;;;;;;;;;;;;;;;19.17;49.90;99714.19;2211345;39;115640;-54
2021/05/22 05:37:13;;;;;;;;;;;;;;;19.16;49.95;99712.53;2211676;39;116585;-53
2021/05/22 05:38:45;;;;;;;;;;;;;;;19.14;50.23;99721.25;2208653;39;113896;-54
2021/05/22 05:40:19;;;;;;;;;;;;;;;19.13;50.28;99719.63;2209900;39;114254;-54
2021/05/22 05:41:51;;;;;;;;;;;;;;;19.14;50.05;99728.84;2210591;39;113689;-54
2021/05/22 05:43:22;;;;;;;;;;;;;;;19.14;50.39;99734.44;2209779;39;114082;-53
2021/05/22 05:44:54;;;;;;;;;;;;;;;19.15;50.28;99739.72;2206794;39;113837;-57
2021/05/22 05:46:26;;;;;;;;;;;;;;;19.14;49.48;99734.44;2210920;39;113934;-54
2021/05/22 05:47:57;;;;;;;;;;;;;;;19.14;49.28;99742.84;2202592;39;113845;-54
2021/05/22 05:49:29;;;;;;;;;;;;;;;19.10;49.31;99735.09;2205994;39;113924;-55
2021/05/22 05:51:00;;;;;;;;;;;;;;;19.13;49.58;99744.81;2208367;39;113897;-54
2021/05/22 05:52:32;;;;;;;;;;;;;;;19.10;49.47;99746.31;2207493;39;114362;-54
2021/05/22 05:54:04;;;;;;;;;;;;;;;19.12;49.28;99750.75;2208689;39;114077;-54
2021/05/22 05:55:35;;;;;;;;;;;;;;;19.12;49.31;99753.56;2211200;39;113957;-54
2021/05/22 05:57:07;;;;;;;;;;;;;;;19.09;49.56;99752.22;2209378;39;114191;-54
2021/05/22 05:58:38;;;;;;;;;;;;;;;19.08;49.57;99748.59;2210838;39;113944;-54
2021/05/22 06:00:10;;;;;;;;;;;;;;;19.08;49.40;99758.97;2212741;39;114127;-54
2021/05/22 06:01:42;;;;;;;;;;;;;;;19.08;49.22;99761.75;2214537;39;113940;-53
2021/05/22 06:03:24;;;;;;;;;;;;;;;19.08;49.60;99759.78;2212119;39;114875;-54
2021/05/22 06:04:55;;;;;;;;;;;;;;;19.06;49.52;99766.88;2203602;39;113869;-54
2021/05/22 06:06:27;;;;;;;;;;;;;;;19.06;49.77;99769.69;2208703;39;114043;-54
2021/05/22 06:07:59;;;;;;;;;;;;;;;19.06;49.68;99764.91;2210313;39;115161;-54
2021/05/22 06:09:30;;;;;;;;;;;;;;;19.05;49.61;99774.44;2211181;39;114802;-54
2021/05/22 06:11:03;;;;;;;;;;;;;;;19.07;49.79;99776.94;2210263;39;115064;-54
2021/05/22 06:12:35;;;;;;;;;;;;;;;19.09;49.69;99781.03;2209593;39;115202;-54
2021/05/22 06:14:14;;;;;;;;;;;;;;;19.10;49.63;99781.88;2210771;39;114866;-54
2021/05/22 06:15:49;;;;;;;;;;;;;;;19.07;50.03;99788.13;2207543;39;114811;-53
2021/05/22 06:17:20;;;;;;;;;;;;;;;19.08;49.96;99795.34;2211157;39;115137;-54
2021/05/22 06:18:53;;;;;;;;;;;;;;;19.07;49.61;99804.94;2210265;39;115478;-53
2021/05/22 06:20:26;;;;;;;;;;;;;;;19.05;49.64;99802.44;2211326;39;114747;-54
2021/05/22 06:21:57;;;;;;;;;;;;;;;19.05;49.66;99808.03;2212449;39;115309;-53
2021/05/22 06:23:30;;;;;;;;;;;;;;;19.06;49.80;99809.69;2210420;39;115246;-54
2021/05/22 06:25:01;;;;;;;;;;;;;;;19.07;49.63;99811.34;2210940;39;114633;-54
2021/05/22 06:26:33;;;;;;;;;;;;;;;19.06;49.56;99812.50;2209773;39;115959;-54
2021/05/22 06:28:04;;;;;;;;;;;;;;;19.06;49.43;99817.28;2208228;39;117661;-54
2021/05/22 06:29:36;;;;;;;;;;;;;;;19.02;49.69;99811.50;2207324;39;116422;-54
2021/05/22 06:31:08;;;;;;;;;;;;;;;19.02;49.55;99813.47;2210592;39;115511;-54
2021/05/22 06:32:39;;;;;;;;;;;;;;;19.02;49.52;99814.31;2203732;39;115606;-54
2021/05/22 06:34:11;;;;;;;;;;;;;;;19.02;49.59;99817.09;2206280;39;115627;-54
2021/05/22 06:35:43;;;;;;;;;;;;;;;19.01;49.65;99829.44;2211046;39;114515;-54
2021/05/22 06:37:15;;;;;;;;;;;;;;;19.04;49.63;99831.59;2203124;39;116111;-53
2021/05/22 06:38:46;;;;;;;;;;;;;;;19.03;49.96;99832.72;2208346;39;116100;-54
2021/05/22 06:40:18;;;;;;;;;;;;;;;19.02;50.12;99838.66;2204257;39;115950;-55
2021/05/22 06:41:50;;;;;;;;;;;;;;;19.05;49.93;99852.84;2207700;39;115555;-54
2021/05/22 06:43:21;;;;;;;;;;;;;;;19.04;50.10;99847.56;2210892;39;115489;-53
2021/05/22 06:44:58;;;;;;;;;;;;;;;19.04;49.73;99856.78;2203056;39;113995;-54
2021/05/22 06:48:02;;;;;;;;;;;;;;;19.03;50.09;99860.72;2205169;39;114808;-54
2021/05/22 06:49:34;;;;;;;;;;;;;;;19.07;50.27;99869.31;2208134;39;113946;-53
2021/05/22 06:51:05;;;;;;;;;;;;;;;19.10;50.31;99875.09;2210400;39;113734;-53
2021/05/22 06:52:37;;;;;;;;;;;;;;;19.10;50.36;99883.50;2210455;39;113678;-54
2021/05/22 06:54:08;;;;;;;;;;;;;;;19.15;50.57;99876.09;2211531;39;113595;-53
2021/05/22 06:55:40;;;;;;;;;;;;;;;19.18;50.88;99881.03;2210582;39;113758;-53
2021/05/22 06:57:13;;;;;;;;;;;;;;;19.20;50.71;99879.56;2210158;39;114002;-54
2021/05/22 06:58:44;;;;;;;;;;;;;;;19.22;50.64;99882.84;2205998;39;113973;-53
2021/05/22 07:00:16;;;;;;;;;;;;;;;19.25;50.52;99881.38;2211448;39;113646;-53
2021/05/22 07:01:48;;;;;;;;;;;;;;;19.27;50.60;99879.06;2210066;39;114066;-63
2021/05/22 07:03:20;;;;;;;;;;;;;;;19.31;50.59;99882.88;2209633;39;113836;-57
2021/05/22 07:04:51;;;;;;;;;;;;;;;19.33;50.42;99887.00;2213353;39;114085;-54
2021/05/22 07:06:24;;;;;;;;;;;;;;;19.37;50.41;99896.41;2209502;39;115404;-53
2021/05/22 07:07:56;;;;;;;;;;;;;;;19.41;50.59;99889.00;2209293;39;114908;-53
2021/05/22 07:09:27;;;;;;;;;;;;;;;19.45;50.83;99889.19;2210329;39;114748;-53
2021/05/22 07:10:59;;;;;;;;;;;;;;;19.50;50.76;99897.44;2210026;39;115036;-53
2021/05/22 07:12:30;;;;;;;;;;;;;;;19.55;51.05;99900.09;2210575;39;114790;-53
2021/05/22 07:14:03;;;;;;;;;;;;;;;19.59;50.66;99903.06;2209641;39;114008;-53
2021/05/22 07:15:54;;;;;;;;;;;;;;;19.66;51.12;99909.84;2202889;39;116706;-54
2021/05/22 07:17:26;;;;;;;;;;;;;;;19.69;50.56;99903.56;2208516;39;114266;-53
2021/05/22 07:18:58;;;;;;;;;;;;;;;19.75;50.21;99910.69;2210434;39;115181;-54
2021/05/22 07:20:29;;;;;;;;;;;;;;;19.80;50.21;99915.28;2210028;39;113832;-54
2021/05/22 07:22:01;;;;;;;;;;;;;;;19.85;49.84;99917.94;2209856;39;114053;-54
2021/05/22 07:23:32;;;;;;;;;;;;;;;19.89;49.50;99919.75;2209351;39;114825;-55
2021/05/22 07:25:04;;;;;;;;;;;;;;;19.95;50.23;99914.78;2205310;39;114802;-54
2021/05/22 07:26:36;;;;;;;;;;;;;;;20.01;49.95;99918.25;2210024;39;113867;-54
2021/05/22 07:28:14;;;;;;;;;;;;;;;20.07;49.33;99922.56;2202201;39;115939;-54
2021/05/22 07:29:47;;;;;;;;;;;;;;;20.11;49.28;99921.56;2207083;39;114587;-53
2021/05/22 07:31:19;;;;;;;;;;;;;;;20.16;49.07;99923.38;2208640;39;114755;-53
2021/05/22 07:32:51;;;;;;;;;;;;;;;20.20;49.07;99921.56;2210536;39;115606;-54
2021/05/22 07:34:22;;;;;;;;;;;;;;;20.25;48.61;99927.00;2209533;39;114476;-53
2021/05/22 07:35:54;;;;;;;;;;;;;;;20.29;48.49;99928.81;2210142;39;115517;-54
2021/05/22 07:37:25;;;;;;;;;;;;;;;20.34;48.72;99930.66;2207901;39;115774;-53
2021/05/22 07:38:57;;;;;;;;;;;;;;;20.38;48.46;99931.63;2209517;39;115489;-54
2021/05/22 07:40:29;;;;;;;;;;;;;;;20.42;48.38;99939.06;2210406;39;115446;-53
2021/05/22 07:42:01;;;;;;;;;;;;;;;20.48;48.40;99941.69;2209541;39;115985;-53
2021/05/22 07:43:32;;;;;;;;;;;;;;;20.52;48.22;99946.31;2207966;39;114665;-53
2021/05/22 07:45:05;;;;;;;;;;;;;;;20.58;48.32;99949.78;2205595;39;116181;-54
2021/05/22 07:46:37;;;;;;;;;;;;;;;20.62;47.90;99947.94;2207625;39;114450;-54
2021/05/22 07:48:08;;;;;;;;;;;;;;;20.66;47.89;99948.91;2208397;39;116256;-54
2021/05/22 07:49:40;;;;;;;;;;;;;;;20.69;47.81;99948.25;2209529;39;116612;-54
2021/05/22 07:51:11;;;;;;;;;;;;;;;20.73;47.96;99952.03;2209581;39;113616;-59
2021/05/22 07:52:43;;;;;;;;;;;;;;;20.76;47.87;99956.97;2209313;39;113889;-54
2021/05/22 07:54:15;;;;;;;;;;;;;;;20.78;47.73;99963.91;2205755;39;114518;-54